sensor_id;sensor_type;location;lat;lon;timestamp;P1;durP1;ratioP1;P2;durP2;ratioP2
5133;SDS011;2585;48.696;10.066;2023-09-18T00:00:33;4.90;;;3.47;;
5133;SDS011;2585;48.696;10.066;2023-09-18T00:03:01;4.10;;;3.63;;
5133;SDS011;2585;48.696;10.066;2023-09-18T00:05:29;4.03;;;3.60;;
5133;SDS011;2585;48.696;10.066;2023-09-18T00:07:57;4.10;;;3.70;;
5133;SDS011;2585;48.696;10.066;2023-09-18T00:10:25;4.53;;;3.80;;
5133;SDS011;2585;48.696;10.066;2023-09-18T00:12:52;5.67;;;3.50;;
5133;SDS011;2585;48.696;10.066;2023-09-18T00:15:19;5.97;;;4.03;;
5133;SDS011;2585;48.696;10.066;2023-09-18T00:17:46;10.30;;;4.27;;
5133;SDS011;2585;48.696;10.066;2023-09-18T00:20:13;4.10;;;3.70;;
5133;SDS011;2585;48.696;10.066;2023-09-18T00:22:40;6.00;;;5.00;;
5133;SDS011;2585;48.696;10.066;2023-09-18T00:25:07;6.60;;;3.93;;
5133;SDS011;2585;48.696;10.066;2023-09-18T00:27:34;6.90;;;3.70;;
5133;SDS011;2585;48.696;10.066;2023-09-18T00:30:03;6.60;;;4.47;;
5133;SDS011;2585;48.696;10.066;2023-09-18T00:32:30;7.03;;;5.20;;
5133;SDS011;2585;48.696;10.066;2023-09-18T00:34:57;8.17;;;4.23;;
5133;SDS011;2585;48.696;10.066;2023-09-18T00:37:24;7.40;;;4.10;;
5133;SDS011;2585;48.696;10.066;2023-09-18T00:39:51;5.60;;;3.87;;
5133;SDS011;2585;48.696;10.066;2023-09-18T00:42:17;7.23;;;4.20;;
5133;SDS011;2585;48.696;10.066;2023-09-18T00:44:45;10.40;;;4.80;;
5133;SDS011;2585;48.696;10.066;2023-09-18T00:47:12;5.87;;;4.40;;
5133;SDS011;2585;48.696;10.066;2023-09-18T00:49:41;4.60;;;4.00;;
5133;SDS011;2585;48.696;10.066;2023-09-18T00:52:12;6.07;;;4.43;;
5133;SDS011;2585;48.696;10.066;2023-09-18T00:54:41;8.73;;;4.83;;
5133;SDS011;2585;48.696;10.066;2023-09-18T00:57:09;4.43;;;3.87;;
5133;SDS011;2585;48.696;10.066;2023-09-18T00:59:37;4.80;;;4.27;;
5133;SDS011;2585;48.696;10.066;2023-09-18T01:02:04;6.23;;;4.43;;
5133;SDS011;2585;48.696;10.066;2023-09-18T01:04:32;4.97;;;4.30;;
5133;SDS011;2585;48.696;10.066;2023-09-18T01:07:00;6.53;;;4.40;;
5133;SDS011;2585;48.696;10.066;2023-09-18T01:09:30;5.17;;;4.60;;
5133;SDS011;2585;48.696;10.066;2023-09-18T01:12:13;5.50;;;4.63;;
5133;SDS011;2585;48.696;10.066;2023-09-18T01:17:30;6.93;;;4.10;;
5133;SDS011;2585;48.696;10.066;2023-09-18T01:20:10;7.17;;;4.27;;
5133;SDS011;2585;48.696;10.066;2023-09-18T01:22:38;7.63;;;4.10;;
5133;SDS011;2585;48.696;10.066;2023-09-18T01:25:05;8.57;;;4.60;;
5133;SDS011;2585;48.696;10.066;2023-09-18T01:27:33;5.23;;;4.57;;
5133;SDS011;2585;48.696;10.066;2023-09-18T01:30:00;4.50;;;4.10;;
5133;SDS011;2585;48.696;10.066;2023-09-18T01:32:27;6.57;;;3.73;;
5133;SDS011;2585;48.696;10.066;2023-09-18T01:34:59;6.03;;;4.73;;
5133;SDS011;2585;48.696;10.066;2023-09-18T01:37:29;5.70;;;4.20;;
5133;SDS011;2585;48.696;10.066;2023-09-18T01:39:57;5.40;;;4.20;;
5133;SDS011;2585;48.696;10.066;2023-09-18T01:42:29;6.50;;;4.77;;
5133;SDS011;2585;48.696;10.066;2023-09-18T01:44:56;4.60;;;4.20;;
5133;SDS011;2585;48.696;10.066;2023-09-18T01:47:22;4.93;;;4.20;;
5133;SDS011;2585;48.696;10.066;2023-09-18T01:49:49;4.50;;;4.00;;
5133;SDS011;2585;48.696;10.066;2023-09-18T01:52:16;4.40;;;3.97;;
5133;SDS011;2585;48.696;10.066;2023-09-18T01:54:44;6.30;;;4.10;;
5133;SDS011;2585;48.696;10.066;2023-09-18T01:57:11;6.93;;;4.13;;
5133;SDS011;2585;48.696;10.066;2023-09-18T01:59:38;9.37;;;5.10;;
5133;SDS011;2585;48.696;10.066;2023-09-18T02:02:06;7.60;;;5.27;;
5133;SDS011;2585;48.696;10.066;2023-09-18T02:04:37;5.50;;;4.43;;
5133;SDS011;2585;48.696;10.066;2023-09-18T02:07:24;9.67;;;5.50;;
5133;SDS011;2585;48.696;10.066;2023-09-18T02:09:51;9.03;;;5.30;;
5133;SDS011;2585;48.696;10.066;2023-09-18T02:12:19;17.00;;;5.10;;
5133;SDS011;2585;48.696;10.066;2023-09-18T02:14:46;7.60;;;5.47;;
5133;SDS011;2585;48.696;10.066;2023-09-18T02:17:13;9.63;;;5.13;;
5133;SDS011;2585;48.696;10.066;2023-09-18T02:19:40;6.87;;;5.07;;
5133;SDS011;2585;48.696;10.066;2023-09-18T02:22:06;5.10;;;4.60;;
5133;SDS011;2585;48.696;10.066;2023-09-18T02:24:33;8.47;;;4.80;;
5133;SDS011;2585;48.696;10.066;2023-09-18T02:27:03;5.97;;;4.67;;
5133;SDS011;2585;48.696;10.066;2023-09-18T02:29:30;7.03;;;4.73;;
5133;SDS011;2585;48.696;10.066;2023-09-18T02:31:57;7.13;;;5.27;;
5133;SDS011;2585;48.696;10.066;2023-09-18T02:34:24;10.83;;;5.67;;
5133;SDS011;2585;48.696;10.066;2023-09-18T02:36:51;11.97;;;5.30;;
5133;SDS011;2585;48.696;10.066;2023-09-18T02:39:18;10.23;;;5.33;;
5133;SDS011;2585;48.696;10.066;2023-09-18T02:41:45;5.50;;;4.77;;
5133;SDS011;2585;48.696;10.066;2023-09-18T02:44:12;6.50;;;5.30;;
5133;SDS011;2585;48.696;10.066;2023-09-18T02:46:39;6.53;;;5.20;;
5133;SDS011;2585;48.696;10.066;2023-09-18T02:49:06;7.17;;;4.93;;
5133;SDS011;2585;48.696;10.066;2023-09-18T02:51:33;7.40;;;5.13;;
5133;SDS011;2585;48.696;10.066;2023-09-18T02:54:00;6.10;;;5.50;;
5133;SDS011;2585;48.696;10.066;2023-09-18T02:56:26;5.33;;;4.80;;
5133;SDS011;2585;48.696;10.066;2023-09-18T02:58:53;6.20;;;5.30;;
5133;SDS011;2585;48.696;10.066;2023-09-18T03:01:20;7.43;;;5.20;;
5133;SDS011;2585;48.696;10.066;2023-09-18T03:03:47;10.00;;;5.60;;
5133;SDS011;2585;48.696;10.066;2023-09-18T03:06:14;7.63;;;5.23;;
5133;SDS011;2585;48.696;10.066;2023-09-18T03:08:42;7.10;;;5.00;;
5133;SDS011;2585;48.696;10.066;2023-09-18T03:11:13;12.00;;;5.23;;
5133;SDS011;2585;48.696;10.066;2023-09-18T03:13:44;5.70;;;4.13;;
5133;SDS011;2585;48.696;10.066;2023-09-18T03:16:12;7.10;;;5.37;;
5133;SDS011;2585;48.696;10.066;2023-09-18T03:18:40;7.50;;;5.30;;
5133;SDS011;2585;48.696;10.066;2023-09-18T03:21:07;7.33;;;5.77;;
5133;SDS011;2585;48.696;10.066;2023-09-18T03:23:34;5.43;;;4.90;;
5133;SDS011;2585;48.696;10.066;2023-09-18T03:26:01;6.93;;;5.43;;
5133;SDS011;2585;48.696;10.066;2023-09-18T03:28:29;7.93;;;5.10;;
5133;SDS011;2585;48.696;10.066;2023-09-18T03:30:56;7.33;;;4.73;;
5133;SDS011;2585;48.696;10.066;2023-09-18T03:33:24;7.40;;;5.40;;
5133;SDS011;2585;48.696;10.066;2023-09-18T03:35:51;9.17;;;5.37;;
5133;SDS011;2585;48.696;10.066;2023-09-18T03:38:21;5.60;;;5.00;;
5133;SDS011;2585;48.696;10.066;2023-09-18T03:40:48;5.50;;;4.87;;
5133;SDS011;2585;48.696;10.066;2023-09-18T03:43:14;6.30;;;5.30;;
5133;SDS011;2585;48.696;10.066;2023-09-18T03:45:41;9.00;;;5.33;;
5133;SDS011;2585;48.696;10.066;2023-09-18T03:48:09;12.83;;;5.27;;
5133;SDS011;2585;48.696;10.066;2023-09-18T03:50:37;4.83;;;4.40;;
5133;SDS011;2585;48.696;10.066;2023-09-18T03:53:06;9.30;;;5.57;;
5133;SDS011;2585;48.696;10.066;2023-09-18T03:55:33;7.97;;;4.90;;
5133;SDS011;2585;48.696;10.066;2023-09-18T03:57:59;5.33;;;4.80;;
5133;SDS011;2585;48.696;10.066;2023-09-18T04:00:26;5.57;;;5.03;;
5133;SDS011;2585;48.696;10.066;2023-09-18T04:02:53;5.60;;;5.10;;
5133;SDS011;2585;48.696;10.066;2023-09-18T04:05:20;6.40;;;5.07;;
5133;SDS011;2585;48.696;10.066;2023-09-18T04:07:47;11.43;;;5.20;;
5133;SDS011;2585;48.696;10.066;2023-09-18T04:10:14;5.63;;;5.07;;
5133;SDS011;2585;48.696;10.066;2023-09-18T04:12:45;5.67;;;5.10;;
5133;SDS011;2585;48.696;10.066;2023-09-18T04:15:14;8.27;;;4.83;;
5133;SDS011;2585;48.696;10.066;2023-09-18T04:17:41;5.57;;;5.07;;
5133;SDS011;2585;48.696;10.066;2023-09-18T04:20:08;16.83;;;5.90;;
5133;SDS011;2585;48.696;10.066;2023-09-18T04:22:36;7.30;;;5.37;;
5133;SDS011;2585;48.696;10.066;2023-09-18T04:25:02;5.40;;;4.67;;
5133;SDS011;2585;48.696;10.066;2023-09-18T04:27:31;6.97;;;5.00;;
5133;SDS011;2585;48.696;10.066;2023-09-18T04:29:58;9.17;;;5.73;;
5133;SDS011;2585;48.696;10.066;2023-09-18T04:32:27;6.40;;;5.13;;
5133;SDS011;2585;48.696;10.066;2023-09-18T04:34:55;5.27;;;4.77;;
5133;SDS011;2585;48.696;10.066;2023-09-18T04:37:22;5.83;;;5.07;;
5133;SDS011;2585;48.696;10.066;2023-09-18T04:39:49;8.73;;;5.17;;
5133;SDS011;2585;48.696;10.066;2023-09-18T04:42:16;6.33;;;5.43;;
5133;SDS011;2585;48.696;10.066;2023-09-18T04:44:43;12.20;;;5.73;;
5133;SDS011;2585;48.696;10.066;2023-09-18T04:47:10;6.53;;;5.83;;
5133;SDS011;2585;48.696;10.066;2023-09-18T04:49:37;7.47;;;5.93;;
5133;SDS011;2585;48.696;10.066;2023-09-18T04:52:04;6.90;;;5.87;;
5133;SDS011;2585;48.696;10.066;2023-09-18T04:54:31;6.73;;;5.60;;
5133;SDS011;2585;48.696;10.066;2023-09-18T04:56:58;8.67;;;5.50;;
5133;SDS011;2585;48.696;10.066;2023-09-18T04:59:25;6.73;;;5.33;;
5133;SDS011;2585;48.696;10.066;2023-09-18T05:01:52;10.27;;;5.87;;
5133;SDS011;2585;48.696;10.066;2023-09-18T05:04:18;6.67;;;5.77;;
5133;SDS011;2585;48.696;10.066;2023-09-18T05:06:46;7.60;;;6.43;;
5133;SDS011;2585;48.696;10.066;2023-09-18T05:09:13;5.17;;;4.67;;
5133;SDS011;2585;48.696;10.066;2023-09-18T05:11:41;7.03;;;5.83;;
5133;SDS011;2585;48.696;10.066;2023-09-18T05:14:09;9.43;;;6.23;;
5133;SDS011;2585;48.696;10.066;2023-09-18T05:16:35;7.00;;;5.10;;
5133;SDS011;2585;48.696;10.066;2023-09-18T05:19:03;7.23;;;5.30;;
5133;SDS011;2585;48.696;10.066;2023-09-18T05:21:30;6.27;;;5.23;;
5133;SDS011;2585;48.696;10.066;2023-09-18T05:23:57;8.93;;;5.10;;
5133;SDS011;2585;48.696;10.066;2023-09-18T05:26:23;6.20;;;5.60;;
5133;SDS011;2585;48.696;10.066;2023-09-18T05:28:51;6.63;;;5.57;;
5133;SDS011;2585;48.696;10.066;2023-09-18T05:31:20;11.47;;;5.83;;
5133;SDS011;2585;48.696;10.066;2023-09-18T05:33:47;11.63;;;6.10;;
5133;SDS011;2585;48.696;10.066;2023-09-18T05:36:14;8.07;;;5.50;;
5133;SDS011;2585;48.696;10.066;2023-09-18T05:38:41;6.53;;;5.57;;
5133;SDS011;2585;48.696;10.066;2023-09-18T05:41:09;11.43;;;7.20;;
5133;SDS011;2585;48.696;10.066;2023-09-18T05:43:36;7.83;;;6.53;;
5133;SDS011;2585;48.696;10.066;2023-09-18T05:46:03;10.03;;;6.40;;
5133;SDS011;2585;48.696;10.066;2023-09-18T05:48:30;7.87;;;6.13;;
5133;SDS011;2585;48.696;10.066;2023-09-18T05:50:57;8.87;;;5.30;;
5133;SDS011;2585;48.696;10.066;2023-09-18T05:53:24;8.00;;;5.83;;
5133;SDS011;2585;48.696;10.066;2023-09-18T05:55:51;8.70;;;7.07;;
5133;SDS011;2585;48.696;10.066;2023-09-18T05:58:18;9.03;;;5.90;;
5133;SDS011;2585;48.696;10.066;2023-09-18T06:00:48;10.97;;;6.60;;
5133;SDS011;2585;48.696;10.066;2023-09-18T06:03:15;11.60;;;6.20;;
5133;SDS011;2585;48.696;10.066;2023-09-18T06:05:45;9.37;;;7.13;;
5133;SDS011;2585;48.696;10.066;2023-09-18T06:08:13;7.03;;;6.33;;
5133;SDS011;2585;48.696;10.066;2023-09-18T06:10:42;13.43;;;6.77;;
5133;SDS011;2585;48.696;10.066;2023-09-18T06:13:09;10.17;;;6.37;;
5133;SDS011;2585;48.696;10.066;2023-09-18T06:15:36;8.33;;;6.27;;
5133;SDS011;2585;48.696;10.066;2023-09-18T06:18:03;7.33;;;5.70;;
5133;SDS011;2585;48.696;10.066;2023-09-18T06:20:30;10.27;;;6.90;;
5133;SDS011;2585;48.696;10.066;2023-09-18T06:22:57;11.47;;;7.20;;
5133;SDS011;2585;48.696;10.066;2023-09-18T06:25:24;8.57;;;7.50;;
5133;SDS011;2585;48.696;10.066;2023-09-18T06:27:51;7.67;;;6.70;;
5133;SDS011;2585;48.696;10.066;2023-09-18T06:30:18;11.53;;;6.60;;
5133;SDS011;2585;48.696;10.066;2023-09-18T06:32:45;17.47;;;7.13;;
5133;SDS011;2585;48.696;10.066;2023-09-18T06:35:11;7.47;;;6.50;;
5133;SDS011;2585;48.696;10.066;2023-09-18T06:37:39;7.67;;;6.83;;
5133;SDS011;2585;48.696;10.066;2023-09-18T06:40:06;10.33;;;6.90;;
5133;SDS011;2585;48.696;10.066;2023-09-18T06:42:33;13.27;;;7.50;;
5133;SDS011;2585;48.696;10.066;2023-09-18T06:45:00;7.40;;;5.93;;
5133;SDS011;2585;48.696;10.066;2023-09-18T06:47:27;10.00;;;6.77;;
5133;SDS011;2585;48.696;10.066;2023-09-18T06:49:55;15.80;;;8.17;;
5133;SDS011;2585;48.696;10.066;2023-09-18T06:52:21;6.90;;;6.13;;
5133;SDS011;2585;48.696;10.066;2023-09-18T06:54:48;9.07;;;7.70;;
5133;SDS011;2585;48.696;10.066;2023-09-18T06:57:15;16.27;;;7.10;;
5133;SDS011;2585;48.696;10.066;2023-09-18T06:59:42;12.00;;;6.30;;
5133;SDS011;2585;48.696;10.066;2023-09-18T07:02:09;9.20;;;7.20;;
5133;SDS011;2585;48.696;10.066;2023-09-18T07:04:36;7.77;;;6.60;;
5133;SDS011;2585;48.696;10.066;2023-09-18T07:07:12;7.93;;;6.53;;
5133;SDS011;2585;48.696;10.066;2023-09-18T07:09:40;13.93;;;7.80;;
5133;SDS011;2585;48.696;10.066;2023-09-18T07:12:27;7.50;;;6.07;;
5133;SDS011;2585;48.696;10.066;2023-09-18T07:14:54;9.07;;;7.00;;
5133;SDS011;2585;48.696;10.066;2023-09-18T07:17:21;9.60;;;6.33;;
5133;SDS011;2585;48.696;10.066;2023-09-18T07:19:48;19.37;;;6.83;;
5133;SDS011;2585;48.696;10.066;2023-09-18T07:22:15;11.77;;;6.53;;
5133;SDS011;2585;48.696;10.066;2023-09-18T07:24:42;8.37;;;6.27;;
5133;SDS011;2585;48.696;10.066;2023-09-18T07:27:11;10.50;;;7.30;;
5133;SDS011;2585;48.696;10.066;2023-09-18T07:29:38;8.77;;;6.67;;
5133;SDS011;2585;48.696;10.066;2023-09-18T07:32:05;6.87;;;5.60;;
5133;SDS011;2585;48.696;10.066;2023-09-18T07:34:32;8.83;;;6.10;;
5133;SDS011;2585;48.696;10.066;2023-09-18T07:36:59;9.70;;;6.00;;
5133;SDS011;2585;48.696;10.066;2023-09-18T07:39:26;14.63;;;5.47;;
5133;SDS011;2585;48.696;10.066;2023-09-18T07:41:56;10.47;;;6.07;;
5133;SDS011;2585;48.696;10.066;2023-09-18T07:44:23;8.60;;;5.47;;
5133;SDS011;2585;48.696;10.066;2023-09-18T07:46:49;9.57;;;6.70;;
5133;SDS011;2585;48.696;10.066;2023-09-18T07:49:16;8.80;;;6.13;;
5133;SDS011;2585;48.696;10.066;2023-09-18T07:51:43;16.20;;;6.77;;
5133;SDS011;2585;48.696;10.066;2023-09-18T07:54:13;11.60;;;6.43;;
5133;SDS011;2585;48.696;10.066;2023-09-18T07:56:42;7.63;;;5.27;;
5133;SDS011;2585;48.696;10.066;2023-09-18T07:59:09;7.00;;;5.57;;
5133;SDS011;2585;48.696;10.066;2023-09-18T08:01:37;10.53;;;4.90;;
5133;SDS011;2585;48.696;10.066;2023-09-18T08:04:04;10.50;;;4.80;;
5133;SDS011;2585;48.696;10.066;2023-09-18T08:06:32;6.50;;;4.20;;
5133;SDS011;2585;48.696;10.066;2023-09-18T08:09:00;10.13;;;4.90;;
5133;SDS011;2585;48.696;10.066;2023-09-18T08:11:27;8.57;;;4.83;;
5133;SDS011;2585;48.696;10.066;2023-09-18T08:13:53;13.97;;;4.70;;
5133;SDS011;2585;48.696;10.066;2023-09-18T08:16:20;6.07;;;3.13;;
5133;SDS011;2585;48.696;10.066;2023-09-18T08:18:47;15.93;;;2.90;;
5133;SDS011;2585;48.696;10.066;2023-09-18T08:21:14;4.67;;;2.00;;
5133;SDS011;2585;48.696;10.066;2023-09-18T08:23:43;5.33;;;1.90;;
5133;SDS011;2585;48.696;10.066;2023-09-18T08:26:09;4.53;;;1.70;;
5133;SDS011;2585;48.696;10.066;2023-09-18T08:28:36;7.80;;;2.30;;
5133;SDS011;2585;48.696;10.066;2023-09-18T08:31:09;8.50;;;2.10;;
5133;SDS011;2585;48.696;10.066;2023-09-18T08:33:37;11.83;;;2.03;;
5133;SDS011;2585;48.696;10.066;2023-09-18T08:36:04;4.37;;;2.27;;
5133;SDS011;2585;48.696;10.066;2023-09-18T08:38:31;5.80;;;2.40;;
5133;SDS011;2585;48.696;10.066;2023-09-18T08:40:58;8.47;;;2.00;;
5133;SDS011;2585;48.696;10.066;2023-09-18T08:43:25;6.37;;;2.10;;
5133;SDS011;2585;48.696;10.066;2023-09-18T08:45:53;5.20;;;1.60;;
5133;SDS011;2585;48.696;10.066;2023-09-18T08:48:22;8.53;;;1.80;;
5133;SDS011;2585;48.696;10.066;2023-09-18T08:50:50;3.60;;;1.70;;
5133;SDS011;2585;48.696;10.066;2023-09-18T08:53:18;8.87;;;1.90;;
5133;SDS011;2585;48.696;10.066;2023-09-18T08:55:45;13.40;;;2.10;;
5133;SDS011;2585;48.696;10.066;2023-09-18T08:58:11;4.97;;;1.87;;
5133;SDS011;2585;48.696;10.066;2023-09-18T09:00:38;7.83;;;1.70;;
5133;SDS011;2585;48.696;10.066;2023-09-18T09:03:05;4.37;;;2.00;;
5133;SDS011;2585;48.696;10.066;2023-09-18T09:05:32;6.03;;;2.13;;
5133;SDS011;2585;48.696;10.066;2023-09-18T09:08:00;6.97;;;1.97;;
5133;SDS011;2585;48.696;10.066;2023-09-18T09:10:27;6.27;;;1.90;;
5133;SDS011;2585;48.696;10.066;2023-09-18T09:12:55;9.40;;;1.90;;
5133;SDS011;2585;48.696;10.066;2023-09-18T09:15:27;8.80;;;2.13;;
5133;SDS011;2585;48.696;10.066;2023-09-18T09:18:01;5.00;;;2.07;;
5133;SDS011;2585;48.696;10.066;2023-09-18T09:20:33;2.80;;;1.30;;
5133;SDS011;2585;48.696;10.066;2023-09-18T09:23:03;7.77;;;1.80;;
5133;SDS011;2585;48.696;10.066;2023-09-18T09:25:31;6.90;;;1.80;;
5133;SDS011;2585;48.696;10.066;2023-09-18T09:28:00;4.03;;;1.53;;
5133;SDS011;2585;48.696;10.066;2023-09-18T09:30:32;8.97;;;2.10;;
5133;SDS011;2585;48.696;10.066;2023-09-18T09:33:00;5.37;;;2.20;;
5133;SDS011;2585;48.696;10.066;2023-09-18T09:35:33;6.90;;;2.20;;
5133;SDS011;2585;48.696;10.066;2023-09-18T09:38:08;13.37;;;2.70;;
5133;SDS011;2585;48.696;10.066;2023-09-18T09:40:40;3.90;;;1.40;;
5133;SDS011;2585;48.696;10.066;2023-09-18T09:43:11;40.17;;;8.47;;
5133;SDS011;2585;48.696;10.066;2023-09-18T09:45:42;5.80;;;1.90;;
5133;SDS011;2585;48.696;10.066;2023-09-18T09:48:12;2.60;;;1.60;;
5133;SDS011;2585;48.696;10.066;2023-09-18T09:50:43;9.83;;;2.07;;
5133;SDS011;2585;48.696;10.066;2023-09-18T09:53:15;4.07;;;1.80;;
5133;SDS011;2585;48.696;10.066;2023-09-18T09:55:42;4.47;;;1.63;;
5133;SDS011;2585;48.696;10.066;2023-09-18T09:58:09;6.53;;;2.00;;
5133;SDS011;2585;48.696;10.066;2023-09-18T10:03:10;5.17;;;1.80;;
5133;SDS011;2585;48.696;10.066;2023-09-18T10:05:40;5.10;;;1.97;;
5133;SDS011;2585;48.696;10.066;2023-09-18T10:10:38;3.70;;;1.70;;
5133;SDS011;2585;48.696;10.066;2023-09-18T10:13:10;3.30;;;1.60;;
5133;SDS011;2585;48.696;10.066;2023-09-18T10:15:42;5.10;;;1.53;;
5133;SDS011;2585;48.696;10.066;2023-09-18T10:18:18;6.53;;;2.17;;
5133;SDS011;2585;48.696;10.066;2023-09-18T10:20:56;3.53;;;1.30;;
5133;SDS011;2585;48.696;10.066;2023-09-18T10:23:38;2.00;;;1.13;;
5133;SDS011;2585;48.696;10.066;2023-09-18T10:26:22;9.90;;;1.87;;
5133;SDS011;2585;48.696;10.066;2023-09-18T10:28:53;3.67;;;1.43;;
5133;SDS011;2585;48.696;10.066;2023-09-18T10:31:27;4.50;;;1.50;;
5133;SDS011;2585;48.696;10.066;2023-09-18T10:33:58;3.40;;;1.10;;
5133;SDS011;2585;48.696;10.066;2023-09-18T10:36:25;3.93;;;1.30;;
5133;SDS011;2585;48.696;10.066;2023-09-18T10:38:59;1.67;;;1.00;;
5133;SDS011;2585;48.696;10.066;2023-09-18T10:41:26;3.07;;;1.27;;
5133;SDS011;2585;48.696;10.066;2023-09-18T10:43:53;10.03;;;1.70;;
5133;SDS011;2585;48.696;10.066;2023-09-18T10:46:26;3.03;;;1.50;;
5133;SDS011;2585;48.696;10.066;2023-09-18T10:48:53;4.20;;;1.30;;
5133;SDS011;2585;48.696;10.066;2023-09-18T10:51:21;1.10;;;1.00;;
5133;SDS011;2585;48.696;10.066;2023-09-18T10:53:49;3.87;;;1.50;;
5133;SDS011;2585;48.696;10.066;2023-09-18T10:56:22;3.47;;;1.27;;
5133;SDS011;2585;48.696;10.066;2023-09-18T10:58:59;4.47;;;1.67;;
5133;SDS011;2585;48.696;10.066;2023-09-18T11:01:27;1.43;;;1.17;;
5133;SDS011;2585;48.696;10.066;2023-09-18T11:03:59;2.70;;;1.20;;
5133;SDS011;2585;48.696;10.066;2023-09-18T11:06:28;1.97;;;1.20;;
5133;SDS011;2585;48.696;10.066;2023-09-18T11:08:59;3.10;;;1.50;;
5133;SDS011;2585;48.696;10.066;2023-09-18T11:11:32;3.33;;;1.20;;
5133;SDS011;2585;48.696;10.066;2023-09-18T11:14:00;4.13;;;1.30;;
5133;SDS011;2585;48.696;10.066;2023-09-18T11:21:25;3.10;;;1.30;;
5133;SDS011;2585;48.696;10.066;2023-09-18T11:26:49;4.27;;;1.30;;
5133;SDS011;2585;48.696;10.066;2023-09-18T11:29:22;3.37;;;1.43;;
5133;SDS011;2585;48.696;10.066;2023-09-18T11:31:53;2.27;;;1.10;;
5133;SDS011;2585;48.696;10.066;2023-09-18T11:36:52;3.60;;;1.70;;
5133;SDS011;2585;48.696;10.066;2023-09-18T11:39:33;2.80;;;1.47;;
5133;SDS011;2585;48.696;10.066;2023-09-18T11:44:40;4.07;;;1.20;;
5133;SDS011;2585;48.696;10.066;2023-09-18T11:47:12;3.53;;;1.70;;
5133;SDS011;2585;48.696;10.066;2023-09-18T11:49:55;2.10;;;1.20;;
5133;SDS011;2585;48.696;10.066;2023-09-18T11:52:28;5.13;;;1.83;;
5133;SDS011;2585;48.696;10.066;2023-09-18T11:54:57;6.73;;;2.07;;
5133;SDS011;2585;48.696;10.066;2023-09-18T11:57:25;3.60;;;1.67;;
5133;SDS011;2585;48.696;10.066;2023-09-18T11:59:56;2.63;;;1.50;;
5133;SDS011;2585;48.696;10.066;2023-09-18T12:02:26;4.40;;;1.50;;
5133;SDS011;2585;48.696;10.066;2023-09-18T12:05:17;2.50;;;1.30;;
5133;SDS011;2585;48.696;10.066;2023-09-18T12:07:51;3.23;;;1.37;;
5133;SDS011;2585;48.696;10.066;2023-09-18T12:10:19;1.73;;;1.40;;
5133;SDS011;2585;48.696;10.066;2023-09-18T12:12:49;2.37;;;1.10;;
5133;SDS011;2585;48.696;10.066;2023-09-18T12:15:17;3.20;;;1.53;;
5133;SDS011;2585;48.696;10.066;2023-09-18T12:17:45;3.10;;;1.50;;
5133;SDS011;2585;48.696;10.066;2023-09-18T12:20:16;2.37;;;1.30;;
5133;SDS011;2585;48.696;10.066;2023-09-18T12:22:47;3.20;;;1.23;;
5133;SDS011;2585;48.696;10.066;2023-09-18T12:25:15;5.20;;;1.77;;
5133;SDS011;2585;48.696;10.066;2023-09-18T12:27:44;4.00;;;1.50;;
5133;SDS011;2585;48.696;10.066;2023-09-18T12:30:12;7.93;;;1.77;;
5133;SDS011;2585;48.696;10.066;2023-09-18T12:32:46;6.10;;;2.17;;
5133;SDS011;2585;48.696;10.066;2023-09-18T12:35:16;5.43;;;2.07;;
5133;SDS011;2585;48.696;10.066;2023-09-18T12:37:45;3.20;;;1.90;;
5133;SDS011;2585;48.696;10.066;2023-09-18T12:40:27;4.50;;;1.80;;
5133;SDS011;2585;48.696;10.066;2023-09-18T12:42:56;5.83;;;1.57;;
5133;SDS011;2585;48.696;10.066;2023-09-18T12:45:27;4.53;;;2.37;;
5133;SDS011;2585;48.696;10.066;2023-09-18T12:47:56;3.70;;;2.07;;
5133;SDS011;2585;48.696;10.066;2023-09-18T12:50:25;5.50;;;2.23;;
5133;SDS011;2585;48.696;10.066;2023-09-18T12:52:52;3.00;;;2.10;;
5133;SDS011;2585;48.696;10.066;2023-09-18T12:57:53;3.93;;;2.17;;
5133;SDS011;2585;48.696;10.066;2023-09-18T13:00:21;1.83;;;1.70;;
5133;SDS011;2585;48.696;10.066;2023-09-18T13:02:49;3.50;;;1.77;;
5133;SDS011;2585;48.696;10.066;2023-09-18T13:05:22;3.73;;;2.00;;
5133;SDS011;2585;48.696;10.066;2023-09-18T13:07:53;3.83;;;1.77;;
5133;SDS011;2585;48.696;10.066;2023-09-18T13:10:22;2.77;;;1.90;;
5133;SDS011;2585;48.696;10.066;2023-09-18T13:12:54;2.67;;;1.83;;
5133;SDS011;2585;48.696;10.066;2023-09-18T13:15:31;6.97;;;1.90;;
5133;SDS011;2585;48.696;10.066;2023-09-18T13:18:00;1.80;;;1.40;;
5133;SDS011;2585;48.696;10.066;2023-09-18T13:20:35;2.60;;;1.30;;
5133;SDS011;2585;48.696;10.066;2023-09-18T13:23:02;4.73;;;2.00;;
5133;SDS011;2585;48.696;10.066;2023-09-18T13:25:33;2.60;;;1.80;;
5133;SDS011;2585;48.696;10.066;2023-09-18T13:28:03;3.27;;;1.40;;
5133;SDS011;2585;48.696;10.066;2023-09-18T13:30:32;4.47;;;2.07;;
5133;SDS011;2585;48.696;10.066;2023-09-18T13:33:06;4.03;;;1.40;;
5133;SDS011;2585;48.696;10.066;2023-09-18T13:35:35;2.07;;;1.70;;
5133;SDS011;2585;48.696;10.066;2023-09-18T13:38:04;3.40;;;1.60;;
5133;SDS011;2585;48.696;10.066;2023-09-18T13:40:32;2.60;;;1.53;;
5133;SDS011;2585;48.696;10.066;2023-09-18T13:42:59;1.90;;;1.57;;
5133;SDS011;2585;48.696;10.066;2023-09-18T13:45:26;2.33;;;1.70;;
5133;SDS011;2585;48.696;10.066;2023-09-18T13:47:53;5.23;;;2.07;;
5133;SDS011;2585;48.696;10.066;2023-09-18T13:50:20;3.10;;;1.90;;
5133;SDS011;2585;48.696;10.066;2023-09-18T13:52:48;3.73;;;2.30;;
5133;SDS011;2585;48.696;10.066;2023-09-18T13:55:14;4.20;;;2.03;;
5133;SDS011;2585;48.696;10.066;2023-09-18T13:57:41;4.23;;;2.17;;
5133;SDS011;2585;48.696;10.066;2023-09-18T14:00:08;1.87;;;1.67;;
5133;SDS011;2585;48.696;10.066;2023-09-18T14:02:38;4.63;;;1.97;;
5133;SDS011;2585;48.696;10.066;2023-09-18T14:05:06;2.63;;;2.17;;
5133;SDS011;2585;48.696;10.066;2023-09-18T14:07:36;2.93;;;1.93;;
5133;SDS011;2585;48.696;10.066;2023-09-18T14:10:07;2.70;;;2.10;;
5133;SDS011;2585;48.696;10.066;2023-09-18T14:12:39;2.37;;;2.17;;
5133;SDS011;2585;48.696;10.066;2023-09-18T14:15:07;2.33;;;2.10;;
5133;SDS011;2585;48.696;10.066;2023-09-18T14:17:35;4.03;;;2.80;;
5133;SDS011;2585;48.696;10.066;2023-09-18T14:20:04;3.80;;;2.07;;
5133;SDS011;2585;48.696;10.066;2023-09-18T14:22:34;3.63;;;2.30;;
5133;SDS011;2585;48.696;10.066;2023-09-18T14:25:02;5.83;;;2.67;;
5133;SDS011;2585;48.696;10.066;2023-09-18T14:27:31;3.83;;;2.30;;
5133;SDS011;2585;48.696;10.066;2023-09-18T14:29:58;4.83;;;2.10;;
5133;SDS011;2585;48.696;10.066;2023-09-18T14:32:27;5.90;;;2.73;;
5133;SDS011;2585;48.696;10.066;2023-09-18T14:34:54;2.53;;;2.33;;
5133;SDS011;2585;48.696;10.066;2023-09-18T14:37:21;3.30;;;2.43;;
5133;SDS011;2585;48.696;10.066;2023-09-18T14:39:48;3.90;;;2.33;;
5133;SDS011;2585;48.696;10.066;2023-09-18T14:42:14;3.63;;;2.70;;
5133;SDS011;2585;48.696;10.066;2023-09-18T14:44:41;2.90;;;1.80;;
5133;SDS011;2585;48.696;10.066;2023-09-18T14:47:11;2.40;;;2.10;;
5133;SDS011;2585;48.696;10.066;2023-09-18T14:49:38;3.33;;;2.30;;
5133;SDS011;2585;48.696;10.066;2023-09-18T14:52:05;6.67;;;3.33;;
5133;SDS011;2585;48.696;10.066;2023-09-18T14:54:32;3.27;;;2.30;;
5133;SDS011;2585;48.696;10.066;2023-09-18T14:56:59;3.27;;;2.43;;
5133;SDS011;2585;48.696;10.066;2023-09-18T14:59:27;4.30;;;1.90;;
5133;SDS011;2585;48.696;10.066;2023-09-18T15:02:07;3.40;;;2.00;;
5133;SDS011;2585;48.696;10.066;2023-09-18T15:04:34;5.47;;;1.77;;
5133;SDS011;2585;48.696;10.066;2023-09-18T15:07:01;3.07;;;2.70;;
5133;SDS011;2585;48.696;10.066;2023-09-18T15:09:29;3.93;;;2.13;;
5133;SDS011;2585;48.696;10.066;2023-09-18T15:11:56;4.10;;;1.90;;
5133;SDS011;2585;48.696;10.066;2023-09-18T15:14:22;6.37;;;2.30;;
5133;SDS011;2585;48.696;10.066;2023-09-18T15:16:50;4.03;;;1.90;;
5133;SDS011;2585;48.696;10.066;2023-09-18T15:19:17;2.50;;;1.67;;
5133;SDS011;2585;48.696;10.066;2023-09-18T15:21:46;4.13;;;2.17;;
5133;SDS011;2585;48.696;10.066;2023-09-18T15:24:13;4.97;;;2.10;;
5133;SDS011;2585;48.696;10.066;2023-09-18T15:26:40;2.00;;;1.50;;
5133;SDS011;2585;48.696;10.066;2023-09-18T15:29:07;3.50;;;1.90;;
5133;SDS011;2585;48.696;10.066;2023-09-18T15:31:35;4.30;;;1.97;;